Multan Weather



Multan's Current Weather

Temprature 29o smoke

smoke

Rain: 0 %

Min Temprature29o
Max Temprature29o
Humidity58
Wind Speed4.32 m/h
Sun Rise05:45:41
Sun Set18:48:31
Current Time: 23-Aug-2019 05:05:04
Lat/Lon: 30.2, 71.47




Multan's Geo Location



Multan's Weather Forecast

Time Overall Temp Min Temp Max Temp Humidity Wind Speed Rain
23-Aug-2019 (Fri)
08:00:00 clear sky 33.410 33.410 36.647 25 5.87 m/h 0 %
11:00:00 clear sky 39.220 39.220 41.650 17 1.54 m/h 0 %
14:00:00 clear sky 42.510 42.510 44.131 14 1.2 m/h 0 %
17:00:00 clear sky 43.500 43.500 44.311 12 3.95 m/h 0 %
20:00:00 clear sky 38.950 38.950 38.950 18 4.41 m/h 0 %
23:00:00 clear sky 36.342 36.342 36.342 21 5.91 m/h 0 %
24-Aug-2019 (Sat)
02:00:00 clear sky 35.831 35.831 35.831 24 9.18 m/h 0 %
05:00:00 clear sky 34.055 34.055 34.055 28 6.53 m/h 0 %
08:00:00 clear sky 36.567 36.567 36.567 27 7.16 m/h 0 %
11:00:00 clear sky 41.969 41.969 41.969 18 3.48 m/h 0 %
14:00:00 clear sky 44.669 44.669 44.669 13 2.92 m/h 0 %
17:00:00 few clouds 43.423 43.423 43.423 14 5.11 m/h 0 %
20:00:00 scattered clouds 39.050 39.050 39.050 18 6.49 m/h 0 %
23:00:00 few clouds 36.569 36.569 36.569 23 7.59 m/h 0 %
25-Aug-2019 (Sun)
02:00:00 clear sky 35.731 35.731 35.731 22 8.57 m/h 0 %
05:00:00 clear sky 34.057 34.057 34.057 24 6.42 m/h 0 %
08:00:00 clear sky 36.814 36.814 36.814 22 6.98 m/h 0 %
11:00:00 clear sky 43.116 43.116 43.116 15 5.94 m/h 0 %
14:00:00 clear sky 45.550 45.550 45.550 12 5.16 m/h 0 %
17:00:00 scattered clouds 43.450 43.450 43.450 14 6.26 m/h 0 %
20:00:00 broken clouds 38.881 38.881 38.881 19 5.85 m/h 0 %
23:00:00 scattered clouds 36.811 36.811 36.811 23 7.57 m/h 0 %
26-Aug-2019 (Mon)
02:00:00 clear sky 36.065 36.065 36.065 26 6.67 m/h 0 %
05:00:00 scattered clouds 33.650 33.650 33.650 29 3.76 m/h 0 %
08:00:00 overcast clouds 37.567 37.567 37.567 23 2.73 m/h 0 %
11:00:00 broken clouds 43.172 43.172 43.172 16 5.18 m/h 0 %
14:00:00 clear sky 45.484 45.484 45.484 13 5.08 m/h 0 %
17:00:00 scattered clouds 44.820 44.820 44.820 12 5.22 m/h 0 %
20:00:00 scattered clouds 39.472 39.472 39.472 18 3.72 m/h 0 %
23:00:00 broken clouds 37.614 37.614 37.614 23 3.68 m/h 0 %
27-Aug-2019 (Tue)
02:00:00 scattered clouds 34.216 34.216 34.216 26 2.45 m/h 0 %
05:00:00 broken clouds 32.550 32.550 32.550 42 3.01 m/h 0 %
08:00:00 few clouds 36.335 36.335 36.335 33 3.5 m/h 0 %
11:00:00 scattered clouds 41.336 41.336 41.336 23 3.18 m/h 0 %
14:00:00 overcast clouds 43.936 43.936 43.936 18 2.93 m/h 0 %
17:00:00 overcast clouds 42.065 42.065 42.065 21 5.8 m/h 0 %
20:00:00 overcast clouds 38.050 38.050 38.050 29 4.42 m/h 0 %
23:00:00 broken clouds 35.850 35.850 35.850 34 2.19 m/h 0 %
28-Aug-2019 (Wed)
02:00:00 scattered clouds 34.557 34.557 34.557 37 3 m/h 0 %
05:00:00 few clouds 34.072 34.072 34.072 38 2.94 m/h 0 %


Multan's Tourist Spots

Historical Places in Multan

Famous Cities (61)